sensor_id;sensor_type;location;lat;lon;timestamp;temperature;humidity
9861;DHT22;4969;52.304;4.968;2022-10-23T00:01:18;17.51;77.29
9861;DHT22;4969;52.304;4.968;2022-10-23T00:03:46;17.51;76.99
9861;DHT22;4969;52.304;4.968;2022-10-23T00:06:14;17.47;76.43
9861;DHT22;4969;52.304;4.968;2022-10-23T00:08:41;17.41;76.91
9861;DHT22;4969;52.304;4.968;2022-10-23T00:11:08;17.52;76.67
9861;DHT22;4969;52.304;4.968;2022-10-23T00:13:37;17.47;76.77
9861;DHT22;4969;52.304;4.968;2022-10-23T00:16:04;17.41;76.78
9861;DHT22;4969;52.304;4.968;2022-10-23T00:18:31;17.47;76.58
9861;DHT22;4969;52.304;4.968;2022-10-23T00:20:57;17.45;76.47
9861;DHT22;4969;52.304;4.968;2022-10-23T00:23:24;17.48;76.51
9861;DHT22;4969;52.304;4.968;2022-10-23T00:25:51;17.57;76.17
9861;DHT22;4969;52.304;4.968;2022-10-23T00:28:17;17.44;76.13
9861;DHT22;4969;52.304;4.968;2022-10-23T00:30:45;17.32;76.05
9861;DHT22;4969;52.304;4.968;2022-10-23T00:33:12;17.16;76.51
9861;DHT22;4969;52.304;4.968;2022-10-23T00:35:39;17.19;76.39
9861;DHT22;4969;52.304;4.968;2022-10-23T00:38:05;17.03;75.70
9861;DHT22;4969;52.304;4.968;2022-10-23T00:40:32;16.93;76.93
9861;DHT22;4969;52.304;4.968;2022-10-23T00:42:59;17.12;76.88
9861;DHT22;4969;52.304;4.968;2022-10-23T00:45:27;17.20;76.70
9861;DHT22;4969;52.304;4.968;2022-10-23T00:47:58;17.21;76.47
9861;DHT22;4969;52.304;4.968;2022-10-23T00:50:26;17.20;76.53
9861;DHT22;4969;52.304;4.968;2022-10-23T00:52:55;17.28;76.51
9861;DHT22;4969;52.304;4.968;2022-10-23T00:55:23;17.20;76.39
9861;DHT22;4969;52.304;4.968;2022-10-23T00:57:51;17.19;76.43
9861;DHT22;4969;52.304;4.968;2022-10-23T01:00:20;17.19;76.33
9861;DHT22;4969;52.304;4.968;2022-10-23T01:02:47;17.34;76.35
9861;DHT22;4969;52.304;4.968;2022-10-23T01:05:16;17.38;76.19
9861;DHT22;4969;52.304;4.968;2022-10-23T01:07:49;17.44;75.31
9861;DHT22;4969;52.304;4.968;2022-10-23T01:10:24;17.37;75.28
9861;DHT22;4969;52.304;4.968;2022-10-23T01:12:57;17.55;75.62
9861;DHT22;4969;52.304;4.968;2022-10-23T01:15:30;17.61;75.20
9861;DHT22;4969;52.304;4.968;2022-10-23T01:18:05;17.41;75.04
9861;DHT22;4969;52.304;4.968;2022-10-23T01:20:40;17.52;74.80
9861;DHT22;4969;52.304;4.968;2022-10-23T01:23:25;17.69;74.14
9861;DHT22;4969;52.304;4.968;2022-10-23T01:26:06;17.76;74.34
9861;DHT22;4969;52.304;4.968;2022-10-23T01:28:42;17.96;74.15
9861;DHT22;4969;52.304;4.968;2022-10-23T01:31:13;18.04;74.23
9861;DHT22;4969;52.304;4.968;2022-10-23T01:33:43;17.85;74.50
9861;DHT22;4969;52.304;4.968;2022-10-23T01:36:13;17.93;74.33
9861;DHT22;4969;52.304;4.968;2022-10-23T01:38:43;18.00;73.70
9861;DHT22;4969;52.304;4.968;2022-10-23T01:41:15;17.87;73.43
9861;DHT22;4969;52.304;4.968;2022-10-23T01:43:47;18.00;73.80
9861;DHT22;4969;52.304;4.968;2022-10-23T01:46:16;17.95;73.04
9861;DHT22;4969;52.304;4.968;2022-10-23T01:48:46;17.71;73.79
9861;DHT22;4969;52.304;4.968;2022-10-23T01:51:16;17.90;74.17
9861;DHT22;4969;52.304;4.968;2022-10-23T01:53:45;17.71;73.08
9861;DHT22;4969;52.304;4.968;2022-10-23T01:56:14;17.55;73.14
9861;DHT22;4969;52.304;4.968;2022-10-23T01:58:46;17.67;74.46
9861;DHT22;4969;52.304;4.968;2022-10-23T02:01:14;17.87;74.12
9861;DHT22;4969;52.304;4.968;2022-10-23T02:03:43;17.87;73.26
9861;DHT22;4969;52.304;4.968;2022-10-23T02:06:10;17.67;72.82
9861;DHT22;4969;52.304;4.968;2022-10-23T02:08:37;17.57;72.67
9861;DHT22;4969;52.304;4.968;2022-10-23T02:11:07;17.55;73.97
9861;DHT22;4969;52.304;4.968;2022-10-23T02:13:39;17.75;74.17
9861;DHT22;4969;52.304;4.968;2022-10-23T02:16:18;17.59;73.40
9861;DHT22;4969;52.304;4.968;2022-10-23T02:18:52;17.61;74.41
9861;DHT22;4969;52.304;4.968;2022-10-23T02:21:26;17.89;73.88
9861;DHT22;4969;52.304;4.968;2022-10-23T02:23:58;18.00;73.71
9861;DHT22;4969;52.304;4.968;2022-10-23T02:26:28;17.96;73.02
9861;DHT22;4969;52.304;4.968;2022-10-23T02:29:02;17.82;73.72
9861;DHT22;4969;52.304;4.968;2022-10-23T02:31:31;17.86;73.49
9861;DHT22;4969;52.304;4.968;2022-10-23T02:33:58;17.82;73.77
9861;DHT22;4969;52.304;4.968;2022-10-23T02:36:24;17.69;72.79
9861;DHT22;4969;52.304;4.968;2022-10-23T02:38:51;17.41;73.43
9861;DHT22;4969;52.304;4.968;2022-10-23T02:41:30;17.44;74.25
9861;DHT22;4969;52.304;4.968;2022-10-23T02:44:07;17.51;74.16
9861;DHT22;4969;52.304;4.968;2022-10-23T02:46:46;17.76;72.65
9861;DHT22;4969;52.304;4.968;2022-10-23T02:49:18;17.59;73.95
9861;DHT22;4969;52.304;4.968;2022-10-23T02:51:53;17.75;74.06
9861;DHT22;4969;52.304;4.968;2022-10-23T02:54:29;17.67;72.52
9861;DHT22;4969;52.304;4.968;2022-10-23T02:57:02;17.67;73.57
9861;DHT22;4969;52.304;4.968;2022-10-23T02:59:36;17.90;73.45
9861;DHT22;4969;52.304;4.968;2022-10-23T03:02:12;17.89;73.01
9861;DHT22;4969;52.304;4.968;2022-10-23T03:04:42;17.75;73.00
9861;DHT22;4969;52.304;4.968;2022-10-23T03:07:09;17.72;74.11
9861;DHT22;4969;52.304;4.968;2022-10-23T03:09:36;17.79;73.54
9861;DHT22;4969;52.304;4.968;2022-10-23T03:12:03;17.93;73.46
9861;DHT22;4969;52.304;4.968;2022-10-23T03:14:30;17.78;73.56
9861;DHT22;4969;52.304;4.968;2022-10-23T03:16:56;17.96;73.29
9861;DHT22;4969;52.304;4.968;2022-10-23T03:19:24;17.92;72.92
9861;DHT22;4969;52.304;4.968;2022-10-23T03:21:51;18.07;71.77
9861;DHT22;4969;52.304;4.968;2022-10-23T03:24:17;18.02;72.78
9861;DHT22;4969;52.304;4.968;2022-10-23T03:26:44;18.10;72.02
9861;DHT22;4969;52.304;4.968;2022-10-23T03:29:10;18.16;72.84
9861;DHT22;4969;52.304;4.968;2022-10-23T03:31:37;17.82;71.71
9861;DHT22;4969;52.304;4.968;2022-10-23T03:34:03;17.89;73.37
9861;DHT22;4969;52.304;4.968;2022-10-23T03:36:35;17.69;72.53
9861;DHT22;4969;52.304;4.968;2022-10-23T03:39:03;17.82;72.62
9861;DHT22;4969;52.304;4.968;2022-10-23T03:41:29;17.32;72.23
9861;DHT22;4969;52.304;4.968;2022-10-23T03:43:56;17.55;73.99
9861;DHT22;4969;52.304;4.968;2022-10-23T03:46:23;17.82;72.56
9861;DHT22;4969;52.304;4.968;2022-10-23T03:48:49;17.90;73.19
9861;DHT22;4969;52.304;4.968;2022-10-23T03:51:16;17.72;72.85
9861;DHT22;4969;52.304;4.968;2022-10-23T03:53:44;17.92;73.13
9861;DHT22;4969;52.304;4.968;2022-10-23T03:56:10;17.85;71.24
9861;DHT22;4969;52.304;4.968;2022-10-23T03:58:37;17.58;72.57
9861;DHT22;4969;52.304;4.968;2022-10-23T04:01:03;17.81;73.18
9861;DHT22;4969;52.304;4.968;2022-10-23T04:03:30;18.00;72.88
9861;DHT22;4969;52.304;4.968;2022-10-23T04:05:56;17.90;72.24
9861;DHT22;4969;52.304;4.968;2022-10-23T04:08:23;17.76;72.86
9861;DHT22;4969;52.304;4.968;2022-10-23T04:10:51;17.81;73.24
9861;DHT22;4969;52.304;4.968;2022-10-23T04:13:19;18.07;72.61
9861;DHT22;4969;52.304;4.968;2022-10-23T04:15:48;18.16;71.87
9861;DHT22;4969;52.304;4.968;2022-10-23T04:18:15;18.04;72.41
9861;DHT22;4969;52.304;4.968;2022-10-23T04:20:42;18.14;72.29
9861;DHT22;4969;52.304;4.968;2022-10-23T04:23:08;18.23;71.74
9861;DHT22;4969;52.304;4.968;2022-10-23T04:25:35;18.21;71.84
9861;DHT22;4969;52.304;4.968;2022-10-23T04:28:03;18.21;71.68
9861;DHT22;4969;52.304;4.968;2022-10-23T04:30:30;18.10;71.98
9861;DHT22;4969;52.304;4.968;2022-10-23T04:32:56;18.09;71.92
9861;DHT22;4969;52.304;4.968;2022-10-23T04:35:23;18.18;70.89
9861;DHT22;4969;52.304;4.968;2022-10-23T04:37:49;17.61;72.01
9861;DHT22;4969;52.304;4.968;2022-10-23T04:40:16;17.30;72.78
9861;DHT22;4969;52.304;4.968;2022-10-23T04:42:42;17.17;73.34
9861;DHT22;4969;52.304;4.968;2022-10-23T04:45:10;16.91;72.10
9861;DHT22;4969;52.304;4.968;2022-10-23T04:47:37;16.75;72.47
9861;DHT22;4969;52.304;4.968;2022-10-23T04:50:04;16.54;73.78
9861;DHT22;4969;52.304;4.968;2022-10-23T04:52:31;16.80;75.57
9861;DHT22;4969;52.304;4.968;2022-10-23T04:54:58;16.54;73.93
9861;DHT22;4969;52.304;4.968;2022-10-23T04:57:24;16.41;75.30
9861;DHT22;4969;52.304;4.968;2022-10-23T04:59:51;16.38;75.37
9861;DHT22;4969;52.304;4.968;2022-10-23T05:02:19;16.20;74.36
9861;DHT22;4969;52.304;4.968;2022-10-23T05:04:45;15.71;74.44
9861;DHT22;4969;52.304;4.968;2022-10-23T05:07:12;15.27;76.10
9861;DHT22;4969;52.304;4.968;2022-10-23T05:09:38;15.33;77.02
9861;DHT22;4969;52.304;4.968;2022-10-23T05:12:05;15.33;77.31
9861;DHT22;4969;52.304;4.968;2022-10-23T05:14:31;15.83;78.64
9861;DHT22;4969;52.304;4.968;2022-10-23T05:17:00;15.61;75.87
9861;DHT22;4969;52.304;4.968;2022-10-23T05:19:32;15.43;76.45
9861;DHT22;4969;52.304;4.968;2022-10-23T05:22:00;15.57;77.17
9861;DHT22;4969;52.304;4.968;2022-10-23T05:24:27;15.75;79.56
9861;DHT22;4969;52.304;4.968;2022-10-23T05:26:53;15.65;77.16
9861;DHT22;4969;52.304;4.968;2022-10-23T05:29:21;16.06;79.71
9861;DHT22;4969;52.304;4.968;2022-10-23T05:31:50;16.02;76.16
9861;DHT22;4969;52.304;4.968;2022-10-23T05:34:18;15.90;76.50
9861;DHT22;4969;52.304;4.968;2022-10-23T05:36:47;15.73;75.90
9861;DHT22;4969;52.304;4.968;2022-10-23T05:39:14;15.75;76.83
9861;DHT22;4969;52.304;4.968;2022-10-23T05:41:41;15.66;76.64
9861;DHT22;4969;52.304;4.968;2022-10-23T05:44:07;15.89;77.68
9861;DHT22;4969;52.304;4.968;2022-10-23T05:46:39;16.49;78.48
9861;DHT22;4969;52.304;4.968;2022-10-23T05:49:05;16.49;74.61
9861;DHT22;4969;52.304;4.968;2022-10-23T05:51:35;16.47;76.82
9861;DHT22;4969;52.304;4.968;2022-10-23T05:54:03;16.69;77.01
9861;DHT22;4969;52.304;4.968;2022-10-23T05:56:32;16.75;76.85
9861;DHT22;4969;52.304;4.968;2022-10-23T05:58:59;17.09;75.85
9861;DHT22;4969;52.304;4.968;2022-10-23T06:01:25;16.86;75.03
9861;DHT22;4969;52.304;4.968;2022-10-23T06:03:52;16.65;75.52
9861;DHT22;4969;52.304;4.968;2022-10-23T06:06:18;16.86;77.33
9861;DHT22;4969;52.304;4.968;2022-10-23T06:08:45;16.77;73.93
9861;DHT22;4969;52.304;4.968;2022-10-23T06:11:14;16.91;76.17
9861;DHT22;4969;52.304;4.968;2022-10-23T06:13:42;17.27;76.23
9861;DHT22;4969;52.304;4.968;2022-10-23T06:16:09;17.54;73.87
9861;DHT22;4969;52.304;4.968;2022-10-23T06:18:36;17.55;73.78
9861;DHT22;4969;52.304;4.968;2022-10-23T06:21:03;17.26;75.52
9861;DHT22;4969;52.304;4.968;2022-10-23T06:23:30;17.99;73.62
9861;DHT22;4969;52.304;4.968;2022-10-23T06:25:57;18.02;73.50
9861;DHT22;4969;52.304;4.968;2022-10-23T06:28:26;17.69;73.63
9861;DHT22;4969;52.304;4.968;2022-10-23T06:30:53;17.65;74.11
9861;DHT22;4969;52.304;4.968;2022-10-23T06:33:19;17.32;73.43
9861;DHT22;4969;52.304;4.968;2022-10-23T06:35:46;17.44;73.32
9861;DHT22;4969;52.304;4.968;2022-10-23T06:38:13;17.37;74.67
9861;DHT22;4969;52.304;4.968;2022-10-23T06:40:40;17.48;74.49
9861;DHT22;4969;52.304;4.968;2022-10-23T06:43:07;17.24;73.80
9861;DHT22;4969;52.304;4.968;2022-10-23T06:45:35;17.06;73.94
9861;DHT22;4969;52.304;4.968;2022-10-23T06:48:01;16.72;74.53
9861;DHT22;4969;52.304;4.968;2022-10-23T06:50:28;17.20;75.86
9861;DHT22;4969;52.304;4.968;2022-10-23T06:52:56;17.24;75.15
9861;DHT22;4969;52.304;4.968;2022-10-23T06:55:22;17.40;74.84
9861;DHT22;4969;52.304;4.968;2022-10-23T06:57:49;17.34;73.94
9861;DHT22;4969;52.304;4.968;2022-10-23T07:00:16;17.52;74.63
9861;DHT22;4969;52.304;4.968;2022-10-23T07:02:44;17.30;74.04
9861;DHT22;4969;52.304;4.968;2022-10-23T07:05:11;17.09;76.20
9861;DHT22;4969;52.304;4.968;2022-10-23T07:07:37;17.51;73.08
9861;DHT22;4969;52.304;4.968;2022-10-23T07:10:05;17.47;73.04
9861;DHT22;4969;52.304;4.968;2022-10-23T07:12:31;17.12;73.68
9861;DHT22;4969;52.304;4.968;2022-10-23T07:14:58;17.27;75.36
9861;DHT22;4969;52.304;4.968;2022-10-23T07:17:24;17.10;73.91
9861;DHT22;4969;52.304;4.968;2022-10-23T07:19:52;17.31;74.19
9861;DHT22;4969;52.304;4.968;2022-10-23T07:22:19;17.20;75.14
9861;DHT22;4969;52.304;4.968;2022-10-23T07:24:45;17.40;75.16
9861;DHT22;4969;52.304;4.968;2022-10-23T07:27:12;17.67;73.66
9861;DHT22;4969;52.304;4.968;2022-10-23T07:29:39;17.67;73.10
9861;DHT22;4969;52.304;4.968;2022-10-23T07:32:06;17.89;73.79
9861;DHT22;4969;52.304;4.968;2022-10-23T07:34:33;17.89;72.61
9861;DHT22;4969;52.304;4.968;2022-10-23T07:37:02;17.59;72.02
9861;DHT22;4969;52.304;4.968;2022-10-23T07:39:29;17.19;73.50
9861;DHT22;4969;52.304;4.968;2022-10-23T07:41:55;17.41;75.09
9861;DHT22;4969;52.304;4.968;2022-10-23T07:44:22;17.68;74.10
9861;DHT22;4969;52.304;4.968;2022-10-23T07:46:49;17.95;72.32
9861;DHT22;4969;52.304;4.968;2022-10-23T07:49:17;17.85;73.16
9861;DHT22;4969;52.304;4.968;2022-10-23T07:51:44;17.81;72.41
9861;DHT22;4969;52.304;4.968;2022-10-23T07:54:13;17.87;73.05
9861;DHT22;4969;52.304;4.968;2022-10-23T07:56:40;18.20;72.83
9861;DHT22;4969;52.304;4.968;2022-10-23T07:59:09;18.24;72.59
9861;DHT22;4969;52.304;4.968;2022-10-23T08:01:37;18.10;72.35
9861;DHT22;4969;52.304;4.968;2022-10-23T08:04:04;18.03;71.55
9861;DHT22;4969;52.304;4.968;2022-10-23T08:06:32;18.16;72.20
9861;DHT22;4969;52.304;4.968;2022-10-23T08:09:00;18.24;72.48
9861;DHT22;4969;52.304;4.968;2022-10-23T08:11:28;17.89;72.72
9861;DHT22;4969;52.304;4.968;2022-10-23T08:14:00;18.28;71.98
9861;DHT22;4969;52.304;4.968;2022-10-23T08:16:29;18.51;70.86
9861;DHT22;4969;52.304;4.968;2022-10-23T08:18:56;18.33;72.02
9861;DHT22;4969;52.304;4.968;2022-10-23T08:21:23;18.48;71.40
9861;DHT22;4969;52.304;4.968;2022-10-23T08:23:52;18.27;72.19
9861;DHT22;4969;52.304;4.968;2022-10-23T08:26:19;18.41;71.23
9861;DHT22;4969;52.304;4.968;2022-10-23T08:28:47;18.54;71.98
9861;DHT22;4969;52.304;4.968;2022-10-23T08:31:15;18.40;71.43
9861;DHT22;4969;52.304;4.968;2022-10-23T08:33:43;18.65;71.51
9861;DHT22;4969;52.304;4.968;2022-10-23T08:36:16;18.61;70.98
9861;DHT22;4969;52.304;4.968;2022-10-23T08:38:43;18.55;70.84
9861;DHT22;4969;52.304;4.968;2022-10-23T08:41:18;18.30;72.63
9861;DHT22;4969;52.304;4.968;2022-10-23T08:43:53;18.27;71.48
9861;DHT22;4969;52.304;4.968;2022-10-23T08:46:24;18.12;72.23
9861;DHT22;4969;52.304;4.968;2022-10-23T08:48:55;18.31;71.42
9861;DHT22;4969;52.304;4.968;2022-10-23T08:51:28;18.69;71.83
9861;DHT22;4969;52.304;4.968;2022-10-23T08:54:05;18.78;71.50
9861;DHT22;4969;52.304;4.968;2022-10-23T08:56:34;18.89;71.27
9861;DHT22;4969;52.304;4.968;2022-10-23T08:59:10;18.72;71.25
9861;DHT22;4969;52.304;4.968;2022-10-23T09:01:41;18.62;71.59
9861;DHT22;4969;52.304;4.968;2022-10-23T09:04:10;18.37;72.10
9861;DHT22;4969;52.304;4.968;2022-10-23T09:06:40;18.59;71.84
9861;DHT22;4969;52.304;4.968;2022-10-23T09:09:24;18.93;71.30
9861;DHT22;4969;52.304;4.968;2022-10-23T09:11:59;18.75;72.45
9861;DHT22;4969;52.304;4.968;2022-10-23T09:17:32;18.96;71.35
9861;DHT22;4969;52.304;4.968;2022-10-23T09:20:13;18.82;71.18
9861;DHT22;4969;52.304;4.968;2022-10-23T09:22:42;18.76;71.86
9861;DHT22;4969;52.304;4.968;2022-10-23T09:25:10;18.78;72.15
9861;DHT22;4969;52.304;4.968;2022-10-23T09:27:37;18.88;72.28
9861;DHT22;4969;52.304;4.968;2022-10-23T09:30:05;18.97;71.84
9861;DHT22;4969;52.304;4.968;2022-10-23T09:32:35;18.92;71.51
9861;DHT22;4969;52.304;4.968;2022-10-23T09:35:02;19.23;71.24
9861;DHT22;4969;52.304;4.968;2022-10-23T09:37:31;19.14;70.42
9861;DHT22;4969;52.304;4.968;2022-10-23T09:40:11;18.97;71.28
9861;DHT22;4969;52.304;4.968;2022-10-23T09:42:49;18.89;71.37
9861;DHT22;4969;52.304;4.968;2022-10-23T09:45:26;19.20;71.52
9861;DHT22;4969;52.304;4.968;2022-10-23T09:48:14;19.30;71.43
9861;DHT22;4969;52.304;4.968;2022-10-23T09:50:51;18.95;71.84
9861;DHT22;4969;52.304;4.968;2022-10-23T09:53:25;18.89;71.93
9861;DHT22;4969;52.304;4.968;2022-10-23T09:55:53;19.06;71.12
9861;DHT22;4969;52.304;4.968;2022-10-23T09:58:26;18.97;72.12
9861;DHT22;4969;52.304;4.968;2022-10-23T10:00:54;18.93;72.26
9861;DHT22;4969;52.304;4.968;2022-10-23T10:03:23;19.06;72.38
9861;DHT22;4969;52.304;4.968;2022-10-23T10:05:57;18.99;71.28
9861;DHT22;4969;52.304;4.968;2022-10-23T10:08:31;18.37;71.38
9861;DHT22;4969;52.304;4.968;2022-10-23T10:11:00;18.04;74.64
9861;DHT22;4969;52.304;4.968;2022-10-23T10:14:02;18.44;73.80
9861;DHT22;4969;52.304;4.968;2022-10-23T10:16:40;18.62;72.52
9861;DHT22;4969;52.304;4.968;2022-10-23T10:19:21;18.88;72.24
9861;DHT22;4969;52.304;4.968;2022-10-23T10:21:56;19.00;71.54
9861;DHT22;4969;52.304;4.968;2022-10-23T10:24:32;19.26;71.67
9861;DHT22;4969;52.304;4.968;2022-10-23T10:27:05;19.31;71.15
9861;DHT22;4969;52.304;4.968;2022-10-23T10:29:44;19.06;70.72
9861;DHT22;4969;52.304;4.968;2022-10-23T10:32:25;19.20;70.66
9861;DHT22;4969;52.304;4.968;2022-10-23T10:35:04;19.10;71.33
9861;DHT22;4969;52.304;4.968;2022-10-23T10:37:44;19.27;70.77
9861;DHT22;4969;52.304;4.968;2022-10-23T10:40:19;19.26;71.37
9861;DHT22;4969;52.304;4.968;2022-10-23T10:43:08;19.10;69.62
9861;DHT22;4969;52.304;4.968;2022-10-23T10:45:37;19.31;71.32
9861;DHT22;4969;52.304;4.968;2022-10-23T10:48:24;19.33;71.26
9861;DHT22;4969;52.304;4.968;2022-10-23T10:50:57;19.19;71.58
9861;DHT22;4969;52.304;4.968;2022-10-23T10:53:32;19.10;71.13
9861;DHT22;4969;52.304;4.968;2022-10-23T10:56:02;19.22;71.94
9861;DHT22;4969;52.304;4.968;2022-10-23T10:58:34;19.35;70.46
9861;DHT22;4969;52.304;4.968;2022-10-23T11:01:17;19.37;69.96
9861;DHT22;4969;52.304;4.968;2022-10-23T11:03:53;19.48;70.87
9861;DHT22;4969;52.304;4.968;2022-10-23T11:06:26;19.47;70.86
9861;DHT22;4969;52.304;4.968;2022-10-23T11:08:56;19.52;70.73
9861;DHT22;4969;52.304;4.968;2022-10-23T11:11:28;19.63;69.88
9861;DHT22;4969;52.304;4.968;2022-10-23T11:13:56;19.62;70.42
9861;DHT22;4969;52.304;4.968;2022-10-23T11:16:26;19.73;70.01
9861;DHT22;4969;52.304;4.968;2022-10-23T11:19:02;19.72;69.58
9861;DHT22;4969;52.304;4.968;2022-10-23T11:21:35;19.97;68.82
9861;DHT22;4969;52.304;4.968;2022-10-23T11:24:30;19.92;68.96
9861;DHT22;4969;52.304;4.968;2022-10-23T11:27:17;19.76;69.39
9861;DHT22;4969;52.304;4.968;2022-10-23T11:30:22;19.72;69.97
9861;DHT22;4969;52.304;4.968;2022-10-23T11:33:15;19.80;69.61
9861;DHT22;4969;52.304;4.968;2022-10-23T11:35:59;19.97;69.31
9861;DHT22;4969;52.304;4.968;2022-10-23T11:38:32;20.23;68.42
9861;DHT22;4969;52.304;4.968;2022-10-23T11:41:01;20.27;68.16
9861;DHT22;4969;52.304;4.968;2022-10-23T11:43:29;20.18;68.35
9861;DHT22;4969;52.304;4.968;2022-10-23T11:45:58;20.27;68.12
9861;DHT22;4969;52.304;4.968;2022-10-23T11:48:35;20.26;68.14
9861;DHT22;4969;52.304;4.968;2022-10-23T11:51:03;20.23;67.91
9861;DHT22;4969;52.304;4.968;2022-10-23T11:53:39;20.09;68.34
9861;DHT22;4969;52.304;4.968;2022-10-23T11:56:24;19.99;68.93
9861;DHT22;4969;52.304;4.968;2022-10-23T11:58:52;19.90;67.97
9861;DHT22;4969;52.304;4.968;2022-10-23T12:01:29;19.82;69.22
9861;DHT22;4969;52.304;4.968;2022-10-23T12:04:00;19.93;68.66
9861;DHT22;4969;52.304;4.968;2022-10-23T12:06:31;20.09;68.33
9861;DHT22;4969;52.304;4.968;2022-10-23T12:09:07;19.96;68.66
9861;DHT22;4969;52.304;4.968;2022-10-23T12:11:43;19.87;68.94
9861;DHT22;4969;52.304;4.968;2022-10-23T12:14:26;20.03;68.60
9861;DHT22;4969;52.304;4.968;2022-10-23T12:16:53;19.99;68.15
9861;DHT22;4969;52.304;4.968;2022-10-23T12:19:22;20.16;68.05
9861;DHT22;4969;52.304;4.968;2022-10-23T12:21:50;20.13;68.26
9861;DHT22;4969;52.304;4.968;2022-10-23T12:24:31;20.10;68.73
9861;DHT22;4969;52.304;4.968;2022-10-23T12:27:13;20.06;68.50
9861;DHT22;4969;52.304;4.968;2022-10-23T12:29:52;20.20;68.20
9861;DHT22;4969;52.304;4.968;2022-10-23T12:32:30;20.05;68.71
9861;DHT22;4969;52.304;4.968;2022-10-23T12:35:14;20.13;68.63
9861;DHT22;4969;52.304;4.968;2022-10-23T12:37:58;20.21;68.74
9861;DHT22;4969;52.304;4.968;2022-10-23T12:40:30;20.12;69.28
9861;DHT22;4969;52.304;4.968;2022-10-23T12:42:58;20.02;69.55
9861;DHT22;4969;52.304;4.968;2022-10-23T12:45:27;19.85;69.63
9861;DHT22;4969;52.304;4.968;2022-10-23T12:47:54;19.95;69.91
9861;DHT22;4969;52.304;4.968;2022-10-23T12:50:22;19.97;69.28
9861;DHT22;4969;52.304;4.968;2022-10-23T12:52:50;19.89;69.30
9861;DHT22;4969;52.304;4.968;2022-10-23T12:55:17;20.03;69.40
9861;DHT22;4969;52.304;4.968;2022-10-23T12:57:45;19.80;70.04
9861;DHT22;4969;52.304;4.968;2022-10-23T13:00:17;19.80;70.26
9861;DHT22;4969;52.304;4.968;2022-10-23T13:02:44;20.13;69.16
9861;DHT22;4969;52.304;4.968;2022-10-23T13:05:19;20.00;69.53
9861;DHT22;4969;52.304;4.968;2022-10-23T13:07:47;20.26;69.06
9861;DHT22;4969;52.304;4.968;2022-10-23T13:10:15;20.10;69.41
9861;DHT22;4969;52.304;4.968;2022-10-23T13:12:46;20.03;69.62
9861;DHT22;4969;52.304;4.968;2022-10-23T13:15:18;20.12;69.36
9861;DHT22;4969;52.304;4.968;2022-10-23T13:17:59;20.30;68.85
9861;DHT22;4969;52.304;4.968;2022-10-23T13:20:27;20.23;68.57
9861;DHT22;4969;52.304;4.968;2022-10-23T13:22:57;20.40;68.69
9861;DHT22;4969;52.304;4.968;2022-10-23T13:25:26;20.35;68.54
9861;DHT22;4969;52.304;4.968;2022-10-23T13:28:11;20.31;68.79
9861;DHT22;4969;52.304;4.968;2022-10-23T13:30:39;20.54;67.78
9861;DHT22;4969;52.304;4.968;2022-10-23T13:33:21;20.58;67.61
9861;DHT22;4969;52.304;4.968;2022-10-23T13:35:54;20.61;67.49
9861;DHT22;4969;52.304;4.968;2022-10-23T13:38:27;20.49;67.59
9861;DHT22;4969;52.304;4.968;2022-10-23T13:40:55;20.49;67.93
9861;DHT22;4969;52.304;4.968;2022-10-23T13:43:24;20.49;67.78
9861;DHT22;4969;52.304;4.968;2022-10-23T13:45:51;20.43;68.08
9861;DHT22;4969;52.304;4.968;2022-10-23T13:48:19;20.35;67.38
9861;DHT22;4969;52.304;4.968;2022-10-23T13:50:46;20.41;67.71
9861;DHT22;4969;52.304;4.968;2022-10-23T13:53:13;20.58;67.35
9861;DHT22;4969;52.304;4.968;2022-10-23T13:55:42;20.54;67.75
9861;DHT22;4969;52.304;4.968;2022-10-23T13:58:08;20.56;67.43
9861;DHT22;4969;52.304;4.968;2022-10-23T14:00:37;20.47;67.72
9861;DHT22;4969;52.304;4.968;2022-10-23T14:03:04;20.55;67.56
9861;DHT22;4969;52.304;4.968;2022-10-23T14:05:31;20.56;67.48
9861;DHT22;4969;52.304;4.968;2022-10-23T14:07:57;20.69;67.06
9861;DHT22;4969;52.304;4.968;2022-10-23T14:10:24;20.63;67.53
9861;DHT22;4969;52.304;4.968;2022-10-23T14:12:50;20.48;68.32
9861;DHT22;4969;52.304;4.968;2022-10-23T14:15:18;20.47;68.50
9861;DHT22;4969;52.304;4.968;2022-10-23T14:17:46;20.56;68.26
9861;DHT22;4969;52.304;4.968;2022-10-23T14:20:12;20.63;68.03
9861;DHT22;4969;52.304;4.968;2022-10-23T14:22:39;20.78;67.55
9861;DHT22;4969;52.304;4.968;2022-10-23T14:25:06;20.83;67.46
9861;DHT22;4969;52.304;4.968;2022-10-23T14:27:33;20.82;67.27
9861;DHT22;4969;52.304;4.968;2022-10-23T14:29:59;20.79;67.57
9861;DHT22;4969;52.304;4.968;2022-10-23T14:32:26;20.61;67.80
9861;DHT22;4969;52.304;4.968;2022-10-23T14:34:54;20.63;68.04
9861;DHT22;4969;52.304;4.968;2022-10-23T14:37:21;20.49;67.81
9861;DHT22;4969;52.304;4.968;2022-10-23T14:39:48;20.71;67.45
9861;DHT22;4969;52.304;4.968;2022-10-23T14:42:15;20.58;67.78
9861;DHT22;4969;52.304;4.968;2022-10-23T14:44:41;20.68;67.48
9861;DHT22;4969;52.304;4.968;2022-10-23T14:47:08;20.67;67.36
9861;DHT22;4969;52.304;4.968;2022-10-23T14:49:35;20.63;67.55
9861;DHT22;4969;52.304;4.968;2022-10-23T14:52:05;20.65;67.48
9861;DHT22;4969;52.304;4.968;2022-10-23T14:54:33;20.51;67.90
9861;DHT22;4969;52.304;4.968;2022-10-23T14:57:00;20.49;67.88
9861;DHT22;4969;52.304;4.968;2022-10-23T14:59:27;20.62;67.28
9861;DHT22;4969;52.304;4.968;2022-10-23T15:01:54;20.56;67.60
9861;DHT22;4969;52.304;4.968;2022-10-23T15:04:20;20.47;67.80
9861;DHT22;4969;52.304;4.968;2022-10-23T15:06:47;20.58;67.46
9861;DHT22;4969;52.304;4.968;2022-10-23T15:09:15;20.58;67.48
9861;DHT22;4969;52.304;4.968;2022-10-23T15:11:43;20.48;67.66
9861;DHT22;4969;52.304;4.968;2022-10-23T15:14:10;20.30;68.10
9861;DHT22;4969;52.304;4.968;2022-10-23T15:16:38;20.30;68.22
9861;DHT22;4969;52.304;4.968;2022-10-23T15:19:06;20.26;68.40
9861;DHT22;4969;52.304;4.968;2022-10-23T15:21:33;20.35;67.99
9861;DHT22;4969;52.304;4.968;2022-10-23T15:24:00;20.30;68.23
9861;DHT22;4969;52.304;4.968;2022-10-23T15:26:28;20.38;67.83
9861;DHT22;4969;52.304;4.968;2022-10-23T15:28:58;20.33;67.97
9861;DHT22;4969;52.304;4.968;2022-10-23T15:31:42;20.27;68.30
9861;DHT22;4969;52.304;4.968;2022-10-23T15:34:11;20.16;68.66
9861;DHT22;4969;52.304;4.968;2022-10-23T15:36:38;20.07;68.88
9861;DHT22;4969;52.304;4.968;2022-10-23T15:39:06;20.12;68.72
9861;DHT22;4969;52.304;4.968;2022-10-23T15:41:35;20.10;68.62
9861;DHT22;4969;52.304;4.968;2022-10-23T15:44:04;20.24;68.26
9861;DHT22;4969;52.304;4.968;2022-10-23T15:46:31;20.17;68.40
9861;DHT22;4969;52.304;4.968;2022-10-23T15:48:58;20.10;68.71
9861;DHT22;4969;52.304;4.968;2022-10-23T15:51:25;20.10;68.75
9861;DHT22;4969;52.304;4.968;2022-10-23T15:53:52;20.20;68.33
9861;DHT22;4969;52.304;4.968;2022-10-23T15:56:19;20.20;68.30
9861;DHT22;4969;52.304;4.968;2022-10-23T15:58:47;20.23;68.49
9861;DHT22;4969;52.304;4.968;2022-10-23T16:01:14;20.33;68.46
9861;DHT22;4969;52.304;4.968;2022-10-23T16:03:40;20.43;68.64
9861;DHT22;4969;52.304;4.968;2022-10-23T16:06:09;20.41;67.92
9861;DHT22;4969;52.304;4.968;2022-10-23T16:08:35;20.23;69.57
9861;DHT22;4969;52.304;4.968;2022-10-23T16:11:03;20.20;69.52
9861;DHT22;4969;52.304;4.968;2022-10-23T16:13:30;20.35;68.84
9861;DHT22;4969;52.304;4.968;2022-10-23T16:16:01;20.45;68.48
9861;DHT22;4969;52.304;4.968;2022-10-23T16:18:28;20.43;68.21
9861;DHT22;4969;52.304;4.968;2022-10-23T16:20:54;20.52;67.98
9861;DHT22;4969;52.304;4.968;2022-10-23T16:23:21;20.55;67.84